Terminal Aerodrome Forecast
Issued by NWS

Home | Current Version | Previous Version | Text Only | Print | Product List | Glossary On
Versions: 1 2 3 4 5 6 7 8 9 10 11 12 13 14 15 16 17 18 19 20 21
933
FTUS43 KDLH 101138
TAFBRD
TAF
KBRD 101138Z 1012/1112 35005KT P6SM BKN140
     FM101700 36004KT P6SM SCT010
     FM110500 VRB02KT P6SM SCT070
      TEMPO 1105/1109 BKN070=

USA.gov is the U.S. government's official web portal to all federal, state and local government web resources and services.